Página principal
METAR-TAF:

METAR-TAF

Aeroportos :

Aeroporto de Estocolmo-Bromma

Estocolmo, Suécia

latitude: 59-21N, longitude: 017-57E, altura: 14 m

Observação actual do tempo

O boletim foi feito há 36 minutos, às 14:50 UTC
Vento 11 kt de oeste
Temperatura 0°C
Humidade 74%
Pressão 1007 hPa
Visibilidade 10 km ou mais
Nuvens fragmentadasa uma altura de 4600 ft

METAR: ESSB 191450Z 27011KT 9999 BKN046 M00/M04 Q1007 R12/19//72

Hora: 16:26 (15:26 UTC)

Previsão

O boletim foi feito há 3 horas e 56 minutos, às 11:30 UTC
Previsão válida de 19 às 12 UTC a 19 às 16 UTC
Vento 10 kt de oeste
Visibilidade 10 km ou mais
sem nuvens abaixo de 1500 metros e sem cumulonimbus

TAF: ESSB 191130Z 1912/1916 28010KT CAVOK

Observações e previsões do tempo de mais de 4000 aeroportos (mensagens METAR e TAF).

As estações disponíveis são os pontos amarelos e vermelhos sobre o mapa.

Mova o rato sobre o mapa para ver o nome da estação.

Depois clique no ponto para visualizar as observações e previsões meteorológicas.

Para alterar o mapa : clique nos botões verdes com uma cruz preta para aumentar o zoom; no botão verde com uma pitada de zoom; ou nas setas verdes para mapas adjacentes.


METAR-TAF: